Ben Arnold, Texas
Current Conditions -  °F | °C
As of 3:35 PM on Friday 31 Oct 2014 (Local Time) from KT35 Reporting Station
Clear Clear  
Wind Chill: 22°   Ceiling: Unl
Heat Index: 22°   Visibility: 10mi
Dew Point:   Wind: 20mph
Humidity: 30%   Direction: 350°N
Pressure: 30.23"   Gusts: 28mph
Location:  30.9882°N, 97.103°W
Report Text: KT35 312035Z AUTO 35017G24KT 10SM CLR 22/04 A3023 RMK AO2 T02230039
Loading
Personal Weather Stations






























Interactive Weather Map
Tropical Storm Tracking
New forecast layout! Learn more

10-Day Weather Forecast

Advertisements
Track Severe Weather on mobile